createdAt,value
2018-12-22T00:00:48.169Z,21.73
2018-12-22T00:01:48.156Z,21.76
2018-12-22T00:02:48.321Z,21.79
2018-12-22T00:03:48.140Z,21.73
2018-12-22T00:04:48.189Z,21.75
2018-12-22T00:05:48.154Z,21.73
2018-12-22T00:06:48.094Z,21.70
2018-12-22T00:07:48.264Z,21.72
2018-12-22T00:08:48.078Z,21.70
2018-12-22T00:09:48.068Z,21.73
2018-12-22T00:10:48.074Z,21.70
2018-12-22T00:11:48.042Z,21.62
2018-12-22T00:12:48.046Z,21.60
2018-12-22T00:13:48.051Z,21.67
2018-12-22T00:14:48.123Z,21.62
2018-12-22T00:15:48.014Z,21.64
2018-12-22T00:16:48.003Z,21.62
2018-12-22T00:17:48.020Z,21.66
2018-12-22T00:18:47.989Z,21.61
2018-12-22T00:19:47.957Z,21.64
2018-12-22T00:20:48.045Z,21.54
2018-12-22T00:21:48.008Z,21.61
2018-12-22T00:22:47.951Z,21.67
2018-12-22T00:23:47.961Z,21.55
2018-12-22T00:24:47.916Z,21.60
2018-12-22T00:25:47.911Z,21.61
2018-12-22T00:26:47.934Z,21.64
2018-12-22T00:27:47.884Z,21.64
2018-12-22T00:28:47.873Z,21.72
2018-12-22T00:29:47.857Z,21.55
2018-12-22T00:30:47.871Z,21.69
2018-12-22T00:31:47.843Z,21.61
2018-12-22T00:32:47.818Z,21.64
2018-12-22T00:33:47.840Z,21.60
2018-12-22T00:34:47.812Z,21.60
2018-12-22T00:35:47.791Z,21.69
2018-12-22T00:36:47.789Z,21.62
2018-12-22T00:37:47.787Z,21.66
2018-12-22T00:38:47.771Z,21.67
2018-12-22T00:39:47.759Z,21.64
2018-12-22T00:40:47.752Z,21.66
2018-12-22T00:41:47.729Z,21.58
2018-12-22T00:42:47.718Z,21.60
2018-12-22T00:43:47.720Z,21.69
2018-12-22T00:44:47.723Z,21.66
2018-12-22T00:45:47.671Z,21.66
2018-12-22T00:46:47.657Z,21.67
2018-12-22T00:47:47.676Z,21.69
2018-12-22T00:48:47.715Z,21.58
2018-12-22T00:49:47.665Z,21.69
2018-12-22T00:50:47.651Z,21.64
2018-12-22T00:51:47.654Z,21.66
2018-12-22T00:52:47.588Z,21.69
2018-12-22T00:53:47.603Z,21.62
2018-12-22T00:54:47.627Z,21.60
2018-12-22T00:55:47.561Z,21.60
2018-12-22T00:56:47.556Z,21.62
2018-12-22T00:57:47.536Z,21.60
2018-12-22T00:58:47.542Z,21.61
2018-12-22T00:59:47.510Z,21.62
2018-12-22T01:00:47.507Z,21.61
2018-12-22T01:01:47.498Z,21.64
2018-12-22T01:02:47.479Z,21.72
2018-12-22T01:03:47.490Z,21.69
2018-12-22T01:04:47.474Z,21.69
2018-12-22T01:05:47.456Z,21.66
2018-12-22T01:06:47.454Z,21.58
2018-12-22T01:07:47.425Z,21.60
2018-12-22T01:08:47.419Z,21.57
2018-12-22T01:09:47.423Z,21.58
2018-12-22T01:10:47.391Z,21.61
2018-12-22T01:11:47.386Z,21.60
2018-12-22T01:12:47.373Z,21.55
2018-12-22T01:13:47.397Z,21.58
2018-12-22T01:14:47.360Z,21.45
2018-12-22T01:15:47.376Z,21.55
2018-12-22T01:16:47.561Z,21.46
2018-12-22T01:17:47.353Z,21.52
2018-12-22T01:18:47.344Z,21.55
2018-12-22T01:19:47.332Z,21.57
2018-12-22T01:20:47.293Z,21.50
2018-12-22T01:21:47.300Z,21.52
2018-12-22T01:22:47.276Z,21.55
2018-12-22T01:23:47.294Z,21.58
2018-12-22T01:24:47.274Z,21.60
2018-12-22T01:25:47.281Z,21.61
2018-12-22T01:26:47.235Z,21.70
2018-12-22T01:27:47.223Z,21.66
2018-12-22T01:28:47.252Z,21.67
2018-12-22T01:29:47.220Z,21.62
2018-12-22T01:30:47.208Z,21.66
2018-12-22T01:31:47.215Z,21.66
2018-12-22T01:32:47.225Z,21.61
2018-12-22T01:33:47.158Z,21.62
2018-12-22T01:34:47.144Z,21.72
2018-12-22T01:35:47.154Z,21.70
2018-12-22T01:36:47.106Z,21.75
2018-12-22T01:37:47.098Z,21.73
2018-12-22T01:38:47.100Z,21.69
2018-12-22T01:39:47.136Z,21.70
2018-12-22T01:40:47.063Z,21.75
2018-12-22T01:41:47.071Z,21.73
2018-12-22T01:42:47.102Z,21.75
2018-12-22T01:43:47.032Z,21.69
2018-12-22T01:44:47.105Z,21.70
2018-12-22T01:45:47.024Z,21.69
2018-12-22T01:46:46.998Z,21.62
2018-12-22T01:47:46.996Z,21.66
2018-12-22T01:48:47.019Z,21.62
2018-12-22T01:49:46.979Z,21.58
2018-12-22T01:50:46.959Z,21.58
2018-12-22T01:51:46.950Z,21.64
2018-12-22T01:52:46.965Z,21.64
2018-12-22T01:53:46.916Z,21.55
2018-12-22T01:54:46.927Z,21.50
2018-12-22T01:55:46.912Z,21.58
2018-12-22T01:56:46.887Z,21.61
2018-12-22T01:57:46.920Z,21.58
2018-12-22T01:58:47.927Z,21.55
2018-12-22T01:59:46.872Z,21.58
2018-12-22T02:00:46.854Z,21.69
2018-12-22T02:01:46.827Z,21.67
2018-12-22T02:02:46.828Z,21.67
2018-12-22T02:03:46.845Z,21.66
2018-12-22T02:04:46.820Z,21.58
2018-12-22T02:05:46.947Z,21.66
2018-12-22T02:06:46.785Z,21.57
2018-12-22T02:07:46.782Z,21.61
2018-12-22T02:08:46.798Z,21.62
2018-12-22T02:09:46.762Z,21.61
2018-12-22T02:10:46.744Z,21.66
2018-12-22T02:11:46.728Z,21.64
2018-12-22T02:12:46.738Z,21.55
2018-12-22T02:13:46.709Z,21.61
2018-12-22T02:14:46.753Z,21.57
2018-12-22T02:15:46.709Z,21.60
2018-12-22T02:16:46.680Z,21.58
2018-12-22T02:17:46.656Z,21.67
2018-12-22T02:18:46.660Z,21.58
2018-12-22T02:19:46.707Z,21.61
2018-12-22T02:20:46.648Z,21.61
2018-12-22T02:21:46.621Z,21.61
2018-12-22T02:22:46.641Z,21.66
2018-12-22T02:23:46.600Z,21.72
2018-12-22T02:24:46.583Z,21.64
2018-12-22T02:25:46.595Z,21.72
2018-12-22T02:26:46.561Z,21.62
2018-12-22T02:27:46.549Z,21.62
2018-12-22T02:28:46.560Z,21.66
2018-12-22T02:29:46.535Z,21.67
2018-12-22T02:30:46.516Z,21.69
2018-12-22T02:31:46.510Z,21.72
2018-12-22T02:32:46.517Z,21.67
2018-12-22T02:33:46.495Z,21.60
2018-12-22T02:34:46.478Z,21.67
2018-12-22T02:35:46.482Z,21.73
2018-12-22T02:36:46.483Z,21.55
2018-12-22T02:37:46.510Z,21.55
2018-12-22T02:38:46.431Z,21.55
2018-12-22T02:39:46.446Z,21.60
2018-12-22T02:40:46.553Z,21.55
2018-12-22T02:41:46.457Z,21.55
2018-12-22T02:42:46.398Z,21.51
2018-12-22T02:43:46.370Z,21.54
2018-12-22T02:44:46.454Z,21.45
2018-12-22T02:45:46.345Z,21.54
2018-12-22T02:46:46.339Z,21.51
2018-12-22T02:47:46.358Z,21.54
2018-12-22T02:48:46.346Z,21.54
2018-12-22T02:49:46.329Z,21.55
2018-12-22T02:50:46.318Z,21.46
2018-12-22T02:51:46.314Z,21.55
2018-12-22T02:52:46.282Z,21.58
2018-12-22T02:53:46.328Z,21.46
2018-12-22T02:54:46.269Z,21.55
2018-12-22T02:55:46.288Z,21.55
2018-12-22T02:56:46.239Z,21.64
2018-12-22T02:57:46.235Z,21.55
2018-12-22T02:58:46.224Z,21.55
2018-12-22T02:59:46.208Z,21.58
2018-12-22T03:00:46.214Z,21.55
2018-12-22T03:01:46.235Z,21.64
2018-12-22T03:02:46.177Z,21.55
2018-12-22T03:03:46.172Z,21.55
2018-12-22T03:04:46.143Z,21.58
2018-12-22T03:05:46.138Z,21.52
2018-12-22T03:06:46.182Z,21.52
2018-12-22T03:07:46.117Z,21.60
2018-12-22T03:08:46.096Z,21.60
2018-12-22T03:09:46.094Z,21.54
2018-12-22T03:10:46.095Z,21.62
2018-12-22T03:11:46.072Z,21.58
2018-12-22T03:12:46.056Z,21.57
2018-12-22T03:13:46.082Z,21.61
2018-12-22T03:14:46.027Z,21.51
2018-12-22T03:15:46.039Z,21.51
2018-12-22T03:16:46.032Z,21.55
2018-12-22T03:17:46.047Z,21.50
2018-12-22T03:18:46.011Z,21.52
2018-12-22T03:19:45.974Z,21.46
2018-12-22T03:20:45.998Z,21.54
2018-12-22T03:21:46.034Z,21.50
2018-12-22T03:22:46.000Z,21.51
2018-12-22T03:23:46.007Z,21.46
2018-12-22T03:24:45.934Z,21.52
2018-12-22T03:25:45.946Z,21.57
2018-12-22T03:26:45.901Z,21.40
2018-12-22T03:27:45.952Z,21.55
2018-12-22T03:28:45.888Z,21.43
2018-12-22T03:29:45.884Z,21.54
2018-12-22T03:30:45.915Z,21.54
2018-12-22T03:31:45.856Z,21.52
2018-12-22T03:32:45.874Z,21.52
2018-12-22T03:33:45.873Z,21.54
2018-12-22T03:34:45.852Z,21.52
2018-12-22T03:35:45.840Z,21.52
2018-12-22T03:36:45.811Z,21.52
2018-12-22T03:37:45.805Z,21.61
2018-12-22T03:38:45.802Z,21.58
2018-12-22T03:39:45.763Z,21.58
2018-12-22T03:40:45.872Z,21.52
2018-12-22T03:41:45.775Z,21.48
2018-12-22T03:42:45.755Z,21.50
2018-12-22T03:43:45.735Z,21.54
2018-12-22T03:44:45.741Z,21.51
2018-12-22T03:45:45.735Z,21.48
2018-12-22T03:46:45.718Z,21.48
2018-12-22T03:47:45.660Z,21.52
2018-12-22T03:48:45.699Z,21.52
2018-12-22T03:49:45.710Z,21.55
2018-12-22T03:50:45.650Z,21.54
2018-12-22T03:51:45.627Z,21.57
2018-12-22T03:52:45.635Z,21.54
2018-12-22T03:53:45.608Z,21.55
2018-12-22T03:54:45.602Z,21.58
2018-12-22T03:55:45.599Z,21.62
2018-12-22T03:56:45.568Z,21.61
2018-12-22T03:57:45.559Z,21.55
2018-12-22T03:58:45.549Z,21.62
2018-12-22T03:59:45.536Z,21.57
2018-12-22T04:00:45.559Z,21.58
2018-12-22T04:01:45.531Z,21.64
2018-12-22T04:02:45.513Z,21.67
2018-12-22T04:03:45.527Z,21.61
2018-12-22T04:04:45.512Z,21.64
2018-12-22T04:05:45.621Z,21.62
2018-12-22T04:06:45.516Z,21.61
2018-12-22T04:07:45.481Z,21.72
2018-12-22T04:08:45.434Z,21.64
2018-12-22T04:09:45.447Z,21.60
2018-12-22T04:10:45.430Z,21.64
2018-12-22T04:11:45.421Z,21.55
2018-12-22T04:12:45.410Z,21.60
2018-12-22T04:13:45.412Z,21.55
2018-12-22T04:14:45.393Z,21.46
2018-12-22T04:15:45.375Z,21.46
2018-12-22T04:16:45.367Z,21.50
2018-12-22T04:17:45.341Z,21.55
2018-12-22T04:18:45.413Z,21.54
2018-12-22T04:19:45.333Z,21.52
2018-12-22T04:20:45.316Z,21.52
2018-12-22T04:21:45.300Z,21.52
2018-12-22T04:22:45.285Z,21.51
2018-12-22T04:23:45.282Z,21.58
2018-12-22T04:24:45.275Z,21.52
2018-12-22T04:25:45.304Z,21.45
2018-12-22T04:26:45.360Z,21.54
2018-12-22T04:27:45.235Z,21.54
2018-12-22T04:28:45.225Z,21.50
2018-12-22T04:29:45.363Z,21.54
2018-12-22T04:30:45.203Z,21.50
2018-12-22T04:31:45.204Z,21.46
2018-12-22T04:32:45.173Z,21.54
2018-12-22T04:33:45.192Z,21.54
2018-12-22T04:34:45.148Z,21.48
2018-12-22T04:35:45.204Z,21.51
2018-12-22T04:36:45.215Z,21.50
2018-12-22T04:37:45.163Z,21.52
2018-12-22T04:38:45.183Z,21.50
2018-12-22T04:39:45.128Z,21.43
2018-12-22T04:40:45.091Z,21.46
2018-12-22T04:41:45.127Z,21.51
2018-12-22T04:42:45.059Z,21.54
2018-12-22T04:43:45.099Z,21.52
2018-12-22T04:44:45.058Z,21.52
2018-12-22T04:45:45.029Z,21.52
2018-12-22T04:46:45.023Z,21.55
2018-12-22T04:47:45.045Z,21.54
2018-12-22T04:48:45.039Z,21.52
2018-12-22T04:49:44.977Z,21.52
2018-12-22T04:50:44.986Z,21.60
2018-12-22T04:51:45.018Z,21.57
2018-12-22T04:52:44.963Z,21.60
2018-12-22T04:53:44.951Z,21.61
2018-12-22T04:54:44.943Z,21.55
2018-12-22T04:55:44.916Z,21.58
2018-12-22T04:56:44.943Z,21.60
2018-12-22T04:57:44.916Z,21.50
2018-12-22T04:58:44.908Z,21.52
2018-12-22T04:59:44.879Z,21.52
2018-12-22T05:00:44.867Z,21.55
2018-12-22T05:01:44.976Z,21.55
2018-12-22T05:02:44.840Z,21.45
2018-12-22T05:03:44.873Z,21.48
2018-12-22T05:04:44.832Z,21.40
2018-12-22T05:05:44.829Z,21.52
2018-12-22T05:06:44.828Z,21.48
2018-12-22T05:07:44.804Z,21.45
2018-12-22T05:08:44.786Z,21.45
2018-12-22T05:09:44.785Z,21.43
2018-12-22T05:10:44.753Z,21.45
2018-12-22T05:11:44.882Z,21.42
2018-12-22T05:12:44.748Z,21.45
2018-12-22T05:13:44.737Z,21.48
2018-12-22T05:14:44.733Z,21.52
2018-12-22T05:15:44.698Z,21.46
2018-12-22T05:16:44.725Z,21.43
2018-12-22T05:17:44.700Z,21.45
2018-12-22T05:18:44.696Z,21.46
2018-12-22T05:19:44.657Z,21.37
2018-12-22T05:20:44.660Z,21.36
2018-12-22T05:21:44.644Z,21.43
2018-12-22T05:22:44.625Z,21.27
2018-12-22T05:23:44.605Z,21.30
2018-12-22T05:24:44.636Z,21.37
2018-12-22T05:25:44.587Z,21.32
2018-12-22T05:26:44.604Z,21.39
2018-12-22T05:27:44.581Z,21.39
2018-12-22T05:28:44.554Z,21.43
2018-12-22T05:29:51.764Z,21.43
2018-12-22T05:30:45.553Z,21.42
2018-12-22T05:31:44.552Z,21.50
2018-12-22T05:32:44.542Z,21.46
2018-12-22T05:33:44.508Z,21.45
2018-12-22T05:34:44.502Z,21.52
2018-12-22T05:35:44.480Z,21.50
2018-12-22T05:36:44.497Z,21.52
2018-12-22T05:37:44.454Z,21.57
2018-12-22T05:38:44.466Z,21.54
2018-12-22T05:39:44.450Z,21.55
2018-12-22T05:40:44.420Z,21.54
2018-12-22T05:41:44.459Z,21.51
2018-12-22T05:42:44.412Z,21.50
2018-12-22T05:43:44.475Z,21.50
2018-12-22T05:44:44.387Z,21.45
2018-12-22T05:45:44.391Z,21.54
2018-12-22T05:46:44.394Z,21.54
2018-12-22T05:47:44.343Z,21.54
2018-12-22T05:48:44.370Z,21.52
2018-12-22T05:49:44.357Z,21.48
2018-12-22T05:50:44.308Z,21.43
2018-12-22T05:51:44.357Z,21.45
2018-12-22T05:52:44.307Z,21.43
2018-12-22T05:53:44.288Z,21.46
2018-12-22T05:54:44.281Z,21.48
2018-12-22T05:55:44.304Z,21.42
2018-12-22T05:56:44.287Z,21.50
2018-12-22T05:57:44.249Z,21.42
2018-12-22T05:58:44.264Z,21.46
2018-12-22T05:59:44.213Z,21.43
2018-12-22T06:00:44.211Z,21.50
2018-12-22T06:01:44.219Z,21.46
2018-12-22T06:02:44.203Z,21.52
2018-12-22T06:03:44.191Z,21.50
2018-12-22T06:04:44.152Z,21.55
2018-12-22T06:05:44.153Z,21.45
2018-12-22T06:06:44.202Z,21.46
2018-12-22T06:07:44.134Z,21.45
2018-12-22T06:08:44.107Z,21.50
2018-12-22T06:09:44.098Z,21.45
2018-12-22T06:10:44.090Z,21.43
2018-12-22T06:11:44.077Z,21.39
2018-12-22T06:12:44.073Z,21.45
2018-12-22T06:13:44.054Z,21.45
2018-12-22T06:14:44.079Z,21.42
2018-12-22T06:15:44.049Z,21.32
2018-12-22T06:16:44.018Z,21.43
2018-12-22T06:17:44.027Z,21.42
2018-12-22T06:18:44.004Z,21.40
2018-12-22T06:19:43.994Z,21.42
2018-12-22T06:20:44.019Z,21.45
2018-12-22T06:21:43.983Z,21.43
2018-12-22T06:22:43.981Z,21.50
2018-12-22T06:23:43.969Z,21.52
2018-12-22T06:24:43.934Z,21.42
2018-12-22T06:25:43.925Z,21.42
2018-12-22T06:26:43.932Z,21.50
2018-12-22T06:27:43.915Z,21.46
2018-12-22T06:28:43.921Z,21.48
2018-12-22T06:29:43.890Z,21.54
2018-12-22T06:30:43.937Z,21.52
2018-12-22T06:31:43.937Z,21.46
2018-12-22T06:32:43.922Z,21.50
2018-12-22T06:33:43.853Z,21.50
2018-12-22T06:34:43.843Z,21.46
2018-12-22T06:35:43.841Z,21.54
2018-12-22T06:36:43.856Z,21.54
2018-12-22T06:37:43.827Z,21.40
2018-12-22T06:38:43.825Z,21.46
2018-12-22T06:39:43.811Z,21.50
2018-12-22T06:40:43.793Z,21.45
2018-12-22T06:41:43.763Z,21.45
2018-12-22T06:42:43.765Z,21.45
2018-12-22T06:43:43.745Z,21.40
2018-12-22T06:44:43.724Z,21.45
2018-12-22T06:45:43.727Z,21.46
2018-12-22T06:46:43.791Z,21.51
2018-12-22T06:47:43.722Z,21.46
2018-12-22T06:48:43.697Z,21.52
2018-12-22T06:49:43.695Z,21.50
2018-12-22T06:50:43.655Z,21.45
2018-12-22T06:51:43.646Z,21.48
2018-12-22T06:52:43.660Z,21.54
2018-12-22T06:53:43.660Z,21.57
2018-12-22T06:54:43.644Z,21.51
2018-12-22T06:55:43.619Z,21.48
2018-12-22T06:56:43.641Z,21.48
2018-12-22T06:57:43.585Z,21.48
2018-12-22T06:58:43.574Z,21.45
2018-12-22T06:59:43.568Z,21.45
2018-12-22T07:00:43.552Z,21.46
2018-12-22T07:01:43.532Z,21.42
2018-12-22T07:02:43.616Z,21.43
2018-12-22T07:03:43.553Z,21.45
2018-12-22T07:04:43.526Z,21.46
2018-12-22T07:05:43.530Z,21.50
2018-12-22T07:06:43.514Z,21.45
2018-12-22T07:07:43.471Z,21.40
2018-12-22T07:08:43.462Z,21.46
2018-12-22T07:09:43.463Z,21.43
2018-12-22T07:10:43.471Z,21.43
2018-12-22T07:11:43.539Z,21.48
2018-12-22T07:12:43.422Z,21.51
2018-12-22T07:13:43.450Z,21.50
2018-12-22T07:14:43.481Z,21.50
2018-12-22T07:15:43.399Z,21.50
2018-12-22T07:16:43.382Z,21.51
2018-12-22T07:17:43.369Z,21.45
2018-12-22T07:18:43.352Z,21.52
2018-12-22T07:19:43.397Z,21.54
2018-12-22T07:20:43.323Z,21.55
2018-12-22T07:21:43.377Z,21.40
2018-12-22T07:22:43.331Z,21.48
2018-12-22T07:23:43.295Z,21.52
2018-12-22T07:24:43.273Z,21.54
2018-12-22T07:25:43.303Z,21.52
2018-12-22T07:26:43.284Z,21.52
2018-12-22T07:27:43.285Z,21.50
2018-12-22T07:28:43.233Z,21.50
2018-12-22T07:29:43.254Z,21.51
2018-12-22T07:30:43.235Z,21.58
2018-12-22T07:31:43.208Z,21.48
2018-12-22T07:32:43.234Z,21.54
2018-12-22T07:33:43.178Z,21.42
2018-12-22T07:34:43.170Z,21.52
2018-12-22T07:35:43.172Z,21.46
2018-12-22T07:36:43.203Z,21.50
2018-12-22T07:37:43.146Z,21.57
2018-12-22T07:38:43.113Z,21.54
2018-12-22T07:39:43.114Z,21.55
2018-12-22T07:40:43.112Z,21.54
2018-12-22T07:41:43.080Z,21.40
2018-12-22T07:42:43.073Z,21.52
2018-12-22T07:43:43.090Z,21.48
2018-12-22T07:44:43.049Z,21.52
2018-12-22T07:45:43.061Z,21.51
2018-12-22T07:46:43.025Z,21.50
2018-12-22T07:47:43.023Z,21.50
2018-12-22T07:48:43.021Z,21.48
2018-12-22T07:49:43.004Z,21.50
2018-12-22T07:50:42.987Z,21.46
2018-12-22T07:51:43.007Z,21.48
2018-12-22T07:52:51.409Z,21.48
2018-12-22T07:53:44.012Z,21.48
2018-12-22T07:54:43.795Z,21.45
2018-12-22T07:55:42.932Z,21.43
2018-12-22T07:56:42.928Z,21.45
2018-12-22T07:57:42.909Z,21.50
2018-12-22T07:58:42.913Z,21.48
2018-12-22T07:59:42.885Z,21.58
2018-12-22T08:00:42.886Z,21.48
2018-12-22T08:01:42.877Z,21.54
2018-12-22T08:02:42.891Z,21.60
2018-12-22T08:03:42.905Z,21.60
2018-12-22T08:04:42.839Z,21.61
2018-12-22T08:05:42.849Z,21.58
2018-12-22T08:06:42.812Z,21.55
2018-12-22T08:07:42.853Z,21.55
2018-12-22T08:08:42.815Z,21.62
2018-12-22T08:09:42.786Z,21.61
2018-12-22T08:10:42.813Z,21.55
2018-12-22T08:11:42.760Z,21.54
2018-12-22T08:12:42.773Z,21.50
2018-12-22T08:13:42.801Z,21.51
2018-12-22T08:14:42.719Z,21.58
2018-12-22T08:15:43.109Z,21.55
2018-12-22T08:16:42.720Z,21.54
2018-12-22T08:17:42.746Z,21.50
2018-12-22T08:18:42.719Z,21.54
2018-12-22T08:19:42.707Z,21.50
2018-12-22T08:20:42.688Z,21.55
2018-12-22T08:21:42.688Z,21.52
2018-12-22T08:22:42.711Z,21.51
2018-12-22T08:23:42.633Z,21.54
2018-12-22T08:24:42.617Z,21.55
2018-12-22T08:25:42.659Z,21.55
2018-12-22T08:26:42.589Z,21.52
2018-12-22T08:27:42.669Z,21.61
2018-12-22T08:28:42.593Z,21.50
2018-12-22T08:29:42.569Z,21.60
2018-12-22T08:30:43.606Z,21.55
2018-12-22T08:31:42.541Z,21.57
2018-12-22T08:32:42.537Z,21.54
2018-12-22T08:33:42.540Z,21.57
2018-12-22T08:34:42.558Z,21.64
2018-12-22T08:35:42.570Z,21.54
2018-12-22T08:36:42.537Z,21.50
2018-12-22T08:37:42.478Z,21.52
2018-12-22T08:38:42.573Z,21.51
2018-12-22T08:39:42.577Z,21.58
2018-12-22T08:40:42.499Z,21.43
2018-12-22T08:41:42.449Z,21.52
2018-12-22T08:42:42.425Z,21.51
2018-12-22T08:43:42.423Z,21.55
2018-12-22T08:44:42.905Z,21.54
2018-12-22T08:45:42.394Z,21.46
2018-12-22T08:46:42.373Z,21.52
2018-12-22T08:47:42.367Z,21.51
2018-12-22T08:48:42.443Z,21.51
2018-12-22T08:49:42.335Z,21.57
2018-12-22T08:50:42.328Z,21.66
2018-12-22T08:51:42.342Z,21.61
2018-12-22T08:52:42.302Z,21.67
2018-12-22T08:53:42.310Z,21.67
2018-12-22T08:54:42.284Z,21.60
2018-12-22T08:55:42.299Z,21.66
2018-12-22T08:56:42.306Z,21.69
2018-12-22T08:57:42.267Z,21.58
2018-12-22T08:58:42.235Z,21.60
2018-12-22T08:59:42.235Z,21.67
2018-12-22T09:00:42.255Z,21.64
2018-12-22T09:01:42.205Z,21.66
2018-12-22T09:02:42.207Z,21.62
2018-12-22T09:03:42.190Z,21.64
2018-12-22T09:04:42.179Z,21.66
2018-12-22T09:05:42.233Z,21.64
2018-12-22T09:06:42.157Z,21.67
2018-12-22T09:07:42.147Z,21.67
2018-12-22T09:08:42.174Z,21.60
2018-12-22T09:09:42.121Z,21.55
2018-12-22T09:10:42.142Z,21.54
2018-12-22T09:11:42.124Z,21.58
2018-12-22T09:12:42.079Z,21.60
2018-12-22T09:13:42.107Z,21.57
2018-12-22T09:14:42.081Z,21.48
2018-12-22T09:15:42.072Z,21.52
2018-12-22T09:16:42.039Z,21.60
2018-12-22T09:17:42.037Z,21.55
2018-12-22T09:18:42.025Z,21.54
2018-12-22T09:19:42.018Z,21.51
2018-12-22T09:20:42.052Z,21.54
2018-12-22T09:21:42.007Z,21.58
2018-12-22T09:22:41.981Z,21.51
2018-12-22T09:23:42.255Z,21.50
2018-12-22T09:24:41.973Z,21.42
2018-12-22T09:25:41.967Z,21.55
2018-12-22T09:26:41.976Z,21.51
2018-12-22T09:27:42.076Z,21.55
2018-12-22T09:28:41.920Z,21.55
2018-12-22T09:29:41.925Z,21.54
2018-12-22T09:30:41.884Z,21.54
2018-12-22T09:31:41.916Z,21.45
2018-12-22T09:32:41.885Z,21.55
2018-12-22T09:33:41.891Z,21.55
2018-12-22T09:34:41.857Z,21.55
2018-12-22T09:35:41.844Z,21.61
2018-12-22T09:36:41.821Z,21.61
2018-12-22T09:37:41.823Z,21.55
2018-12-22T09:38:41.806Z,21.52
2018-12-22T09:39:41.818Z,21.62
2018-12-22T09:40:41.786Z,21.61
2018-12-22T09:41:41.827Z,21.66
2018-12-22T09:42:41.783Z,21.66
2018-12-22T09:43:41.907Z,21.72
2018-12-22T09:44:41.750Z,21.62
2018-12-22T09:45:41.772Z,21.66
2018-12-22T09:46:41.710Z,21.67
2018-12-22T09:47:41.780Z,21.66
2018-12-22T09:48:41.691Z,21.66
2018-12-22T09:49:41.679Z,21.64
2018-12-22T09:50:41.677Z,21.69
2018-12-22T09:51:41.696Z,21.61
2018-12-22T09:52:41.647Z,21.67
2018-12-22T09:53:41.628Z,21.64
2018-12-22T09:54:41.644Z,21.62
2018-12-22T09:55:41.634Z,21.67
2018-12-22T09:56:41.603Z,21.66
2018-12-22T09:57:41.600Z,21.64
2018-12-22T09:58:41.603Z,21.73
2018-12-22T09:59:41.579Z,21.70
2018-12-22T10:00:41.565Z,21.67
2018-12-22T10:01:41.545Z,21.66
2018-12-22T10:02:41.538Z,21.75
2018-12-22T10:03:41.531Z,21.72
2018-12-22T10:04:41.516Z,21.72
2018-12-22T10:05:41.514Z,21.70
2018-12-22T10:06:41.533Z,21.72
2018-12-22T10:07:41.512Z,21.58
2018-12-22T10:08:41.461Z,21.62
2018-12-22T10:09:41.460Z,21.66
2018-12-22T10:10:41.454Z,21.62
2018-12-22T10:11:41.450Z,21.66
2018-12-22T10:12:41.429Z,21.66
2018-12-22T10:13:41.437Z,21.62
2018-12-22T10:14:41.477Z,21.69
2018-12-22T10:15:41.413Z,21.67
2018-12-22T10:16:41.379Z,21.58
2018-12-22T10:17:41.395Z,21.58
2018-12-22T10:18:41.358Z,21.58
2018-12-22T10:19:41.363Z,21.61
2018-12-22T10:20:41.435Z,21.66
2018-12-22T10:21:41.324Z,21.66
2018-12-22T10:22:41.315Z,21.69
2018-12-22T10:23:41.304Z,21.64
2018-12-22T10:24:41.311Z,21.64
2018-12-22T10:25:41.308Z,21.60
2018-12-22T10:26:41.273Z,21.64
2018-12-22T10:27:41.272Z,21.62
2018-12-22T10:28:41.242Z,21.61
2018-12-22T10:29:41.231Z,21.67
2018-12-22T10:30:41.236Z,21.70
2018-12-22T10:31:41.219Z,21.76
2018-12-22T10:32:41.236Z,21.69
2018-12-22T10:33:41.184Z,21.72
2018-12-22T10:34:41.180Z,21.75
2018-12-22T10:35:41.191Z,21.72
2018-12-22T10:36:41.170Z,21.76
2018-12-22T10:37:41.153Z,21.62
2018-12-22T10:38:41.135Z,21.72
2018-12-22T10:39:41.120Z,21.72
2018-12-22T10:40:41.196Z,21.75
2018-12-22T10:41:41.234Z,21.75
2018-12-22T10:42:41.103Z,21.62
2018-12-22T10:43:41.115Z,21.69
2018-12-22T10:44:41.063Z,21.75
2018-12-22T10:45:41.066Z,21.69
2018-12-22T10:46:41.083Z,21.62
2018-12-22T10:47:41.034Z,21.75
2018-12-22T10:48:41.030Z,21.64
2018-12-22T10:49:41.052Z,21.66
2018-12-22T10:50:41.021Z,21.62
2018-12-22T10:51:41.011Z,21.70
2018-12-22T10:52:41.131Z,21.75
2018-12-22T10:53:40.978Z,21.66
2018-12-22T10:54:41.025Z,21.76
2018-12-22T10:55:40.993Z,21.75
2018-12-22T10:56:40.975Z,21.72
2018-12-22T10:57:40.934Z,21.77
2018-12-22T10:58:40.991Z,21.75
2018-12-22T10:59:40.937Z,21.76
2018-12-22T11:00:40.908Z,21.75
2018-12-22T11:01:40.921Z,21.77
2018-12-22T11:02:40.870Z,21.70
2018-12-22T11:03:40.896Z,21.76
2018-12-22T11:04:40.854Z,21.76
2018-12-22T11:05:40.838Z,21.72
2018-12-22T11:06:40.867Z,21.67
2018-12-22T11:07:40.813Z,21.70
2018-12-22T11:08:40.801Z,21.67
2018-12-22T11:09:40.810Z,21.60
2018-12-22T11:10:40.863Z,21.72
2018-12-22T11:11:40.937Z,21.66
2018-12-22T11:12:40.803Z,21.69
2018-12-22T11:13:40.756Z,21.73
2018-12-22T11:14:40.804Z,21.70
2018-12-22T11:15:40.732Z,21.66
2018-12-22T11:16:40.727Z,21.70
2018-12-22T11:17:40.783Z,21.67
2018-12-22T11:18:40.725Z,21.72
2018-12-22T11:19:40.677Z,21.72
2018-12-22T11:20:40.726Z,21.72
2018-12-22T11:21:40.707Z,21.70
2018-12-22T11:22:40.699Z,21.73
2018-12-22T11:23:40.642Z,21.70
2018-12-22T11:24:40.625Z,21.73
2018-12-22T11:25:40.677Z,21.80
2018-12-22T11:26:40.621Z,21.73
2018-12-22T11:27:40.596Z,21.73
2018-12-22T11:28:40.582Z,21.76
2018-12-22T11:29:40.588Z,21.73
2018-12-22T11:30:40.565Z,21.76
2018-12-22T11:31:40.583Z,21.82
2018-12-22T11:32:40.537Z,21.73
2018-12-22T11:33:40.535Z,21.76
2018-12-22T11:34:40.522Z,21.75
2018-12-22T11:35:40.511Z,21.79
2018-12-22T11:36:40.558Z,21.72
2018-12-22T11:37:40.489Z,21.77
2018-12-22T11:38:40.468Z,21.77
2018-12-22T11:39:40.534Z,21.76
2018-12-22T11:40:40.587Z,21.77
2018-12-22T11:41:40.496Z,21.79
2018-12-22T11:42:47.573Z,21.77
2018-12-22T11:43:41.434Z,21.75
2018-12-22T11:44:40.419Z,21.73
2018-12-22T11:45:40.403Z,21.77
2018-12-22T11:46:40.390Z,21.76
2018-12-22T11:47:40.394Z,21.77
2018-12-22T11:48:40.357Z,21.76
2018-12-22T11:49:40.367Z,21.69
2018-12-22T11:50:40.355Z,21.79
2018-12-22T11:51:40.342Z,21.75
2018-12-22T11:52:40.323Z,21.73
2018-12-22T11:53:40.347Z,21.77
2018-12-22T11:54:40.308Z,21.72
2018-12-22T11:55:40.282Z,21.73
2018-12-22T11:56:40.315Z,21.79
2018-12-22T11:57:40.278Z,21.72
2018-12-22T11:58:40.281Z,21.75
2018-12-22T11:59:40.282Z,21.77
2018-12-22T12:00:40.253Z,21.67
2018-12-22T12:01:43.703Z,21.79
2018-12-22T12:02:40.229Z,21.73
2018-12-22T12:03:40.218Z,21.77
2018-12-22T12:04:42.085Z,21.76
2018-12-22T12:05:40.187Z,21.75
2018-12-22T12:06:40.160Z,21.76
2018-12-22T12:07:40.175Z,21.83
2018-12-22T12:08:40.148Z,21.76
2018-12-22T12:09:40.130Z,21.77
2018-12-22T12:10:40.176Z,21.89
2018-12-22T12:11:40.149Z,21.91
2018-12-22T12:12:40.133Z,21.85
2018-12-22T12:13:40.086Z,21.80
2018-12-22T12:14:40.378Z,21.83
2018-12-22T12:15:40.085Z,21.83
2018-12-22T12:16:40.052Z,21.77
2018-12-22T12:17:40.134Z,21.76
2018-12-22T12:18:40.206Z,21.72
2018-12-22T12:19:40.076Z,21.89
2018-12-22T12:20:40.064Z,21.82
2018-12-22T12:21:40.034Z,21.89
2018-12-22T12:22:39.991Z,21.83
2018-12-22T12:23:39.993Z,21.88
2018-12-22T12:24:39.982Z,21.89
2018-12-22T12:25:39.991Z,21.85
2018-12-22T12:26:39.957Z,21.85
2018-12-22T12:27:39.969Z,21.83
2018-12-22T12:28:39.969Z,21.93
2018-12-22T12:29:39.910Z,21.88
2018-12-22T12:30:39.900Z,21.88
2018-12-22T12:31:39.983Z,21.91
2018-12-22T12:32:39.903Z,21.91
2018-12-22T12:33:39.951Z,21.83
2018-12-22T12:34:39.854Z,21.85
2018-12-22T12:35:39.861Z,21.80
2018-12-22T12:36:39.935Z,21.82
2018-12-22T12:37:39.975Z,21.77
2018-12-22T12:38:39.812Z,21.88
2018-12-22T12:39:39.802Z,21.79
2018-12-22T12:40:39.813Z,21.73
2018-12-22T12:41:39.804Z,21.72
2018-12-22T12:42:39.822Z,21.76
2018-12-22T12:43:39.769Z,21.79
2018-12-22T12:44:39.738Z,21.72
2018-12-22T12:45:39.748Z,21.73
2018-12-22T12:46:39.742Z,21.73
2018-12-22T12:47:39.706Z,21.79
2018-12-22T12:48:39.779Z,21.79
2018-12-22T12:49:39.687Z,21.76
2018-12-22T12:50:39.694Z,21.77
2018-12-22T12:51:39.777Z,21.77
2018-12-22T12:52:39.680Z,21.76